Aérodrome :
LOGIN :

S'inscrire | Disclaimer

   EN    FR    IT 

 










Légende :    VFR   VFR Marginal   IFR   IFR Intensif   IFR Très Intensif
Visi : 
Plafond : 
>= 8 km
>= 3000ft
5 à 8 km
1000 à 3000 ft
1500m à 5 km
500 à 1000 ft
800 à 1500m
200 à 500 ft
< 800m
< 200 ft
Symboles :   Orages  Brouillard  Fortes neiges  Fortes précipitations  Vent > 20 kt
SIGMETs :   Divers  Orages  Givrage  Turbulence  Onde Orograph.  Cendres Volcan.







- Altitude de l'aérodrome : 309 ft
- Code IATA : FNI
- Voir les cartes d'approche


LFTW - Nîmes Garons

DERNIER METAR :
  • 262200Z AUTO 28001KT CAVOK 16/13 Q1018

METARs EXPIRÉS :
  • 262130Z AUTO 27002KT CAVOK 17/13 Q1018
  • 262100Z AUTO 28002KT CAVOK 18/13 Q1018
  • 262030Z AUTO 30002KT CAVOK 16/13 Q1018
  • 262000Z AUTO 00000KT CAVOK 18/13 Q1017
  • 261930Z AUTO 24002KT CAVOK 19/13 Q1017

TAF TAF LFTW
Valide du 26 à 15h jusqu'au 27 à 15h UTC


261400Z 2615/2715 18010KT CAVOK
BECMG 2620/2622 VRB02KT
BECMG 2710/2712 18010KT
Pas de NOTAMs connus pour ce terrain.



MET'MAP, la Météo Aéronautique d'un coup d'oeil ! - Copyright ORBIFLY Décembre 2007 - Disclaimer

ORBIFLY MET'MAP TEAM :

Programmation & Développement : Alexandra Zaïnal
Conception & Développement : Baudouin d'Aumeries
Co-Programmation & Développement : Marc-Olivier Méhu
Soutien technique & logistique : Manuel Goepfert

Contact : metmap@orbifly.com




SOURCES & CREDITS :

   NOAA